sensor_id;sensor_type;location;lat;lon;timestamp;temperature;humidity
24560;DHT22;12727;49.934;8.656;2023-04-01T00:02:07;10.50;99.90
24560;DHT22;12727;49.934;8.656;2023-04-01T00:04:32;10.50;99.90
24560;DHT22;12727;49.934;8.656;2023-04-01T00:06:58;10.50;99.90
24560;DHT22;12727;49.934;8.656;2023-04-01T00:09:24;10.50;99.90
24560;DHT22;12727;49.934;8.656;2023-04-01T00:11:50;10.50;99.90
24560;DHT22;12727;49.934;8.656;2023-04-01T00:14:16;10.40;99.90
24560;DHT22;12727;49.934;8.656;2023-04-01T00:16:41;10.40;99.90
24560;DHT22;12727;49.934;8.656;2023-04-01T00:19:07;10.40;99.90
24560;DHT22;12727;49.934;8.656;2023-04-01T00:21:33;10.40;99.90
24560;DHT22;12727;49.934;8.656;2023-04-01T00:23:58;10.50;99.90
24560;DHT22;12727;49.934;8.656;2023-04-01T00:26:24;10.50;99.90
24560;DHT22;12727;49.934;8.656;2023-04-01T00:28:50;10.50;99.90
24560;DHT22;12727;49.934;8.656;2023-04-01T00:31:16;10.50;99.90
24560;DHT22;12727;49.934;8.656;2023-04-01T00:33:42;10.50;99.90
24560;DHT22;12727;49.934;8.656;2023-04-01T00:36:10;10.50;99.90
24560;DHT22;12727;49.934;8.656;2023-04-01T00:38:37;10.50;99.90
24560;DHT22;12727;49.934;8.656;2023-04-01T00:41:04;10.50;99.90
24560;DHT22;12727;49.934;8.656;2023-04-01T00:43:30;10.50;99.90
24560;DHT22;12727;49.934;8.656;2023-04-01T00:45:56;10.50;99.90
24560;DHT22;12727;49.934;8.656;2023-04-01T00:48:39;10.40;99.90
24560;DHT22;12727;49.934;8.656;2023-04-01T00:51:14;10.40;99.90
24560;DHT22;12727;49.934;8.656;2023-04-01T00:53:47;10.30;99.90
24560;DHT22;12727;49.934;8.656;2023-04-01T00:56:16;10.40;99.90
24560;DHT22;12727;49.934;8.656;2023-04-01T00:58:47;10.40;99.90
24560;DHT22;12727;49.934;8.656;2023-04-01T01:01:14;10.40;99.90
24560;DHT22;12727;49.934;8.656;2023-04-01T01:03:40;10.40;99.90
24560;DHT22;12727;49.934;8.656;2023-04-01T01:06:26;10.40;99.90
24560;DHT22;12727;49.934;8.656;2023-04-01T01:09:25;10.40;99.90
24560;DHT22;12727;49.934;8.656;2023-04-01T01:12:07;10.40;99.90
24560;DHT22;12727;49.934;8.656;2023-04-01T01:17:56;10.40;99.90
24560;DHT22;12727;49.934;8.656;2023-04-01T01:20:40;10.50;99.90
24560;DHT22;12727;49.934;8.656;2023-04-01T01:23:19;10.50;99.90
24560;DHT22;12727;49.934;8.656;2023-04-01T01:31:34;10.50;99.90
24560;DHT22;12727;49.934;8.656;2023-04-01T01:37:07;10.50;99.90
24560;DHT22;12727;49.934;8.656;2023-04-01T01:39:34;10.50;99.90
24560;DHT22;12727;49.934;8.656;2023-04-01T01:42:05;10.40;99.90
24560;DHT22;12727;49.934;8.656;2023-04-01T01:44:32;10.40;99.90
24560;DHT22;12727;49.934;8.656;2023-04-01T01:47:00;10.50;99.90
24560;DHT22;12727;49.934;8.656;2023-04-01T01:49:27;10.40;99.90
24560;DHT22;12727;49.934;8.656;2023-04-01T01:51:55;10.50;99.90
24560;DHT22;12727;49.934;8.656;2023-04-01T01:54:21;10.50;99.90
24560;DHT22;12727;49.934;8.656;2023-04-01T01:56:49;10.50;99.90
24560;DHT22;12727;49.934;8.656;2023-04-01T01:59:18;10.40;99.90
24560;DHT22;12727;49.934;8.656;2023-04-01T02:01:49;10.40;99.90
24560;DHT22;12727;49.934;8.656;2023-04-01T02:04:17;10.40;99.90
24560;DHT22;12727;49.934;8.656;2023-04-01T02:06:47;10.40;99.90
24560;DHT22;12727;49.934;8.656;2023-04-01T02:09:15;10.40;99.90
24560;DHT22;12727;49.934;8.656;2023-04-01T02:11:59;10.40;99.90
24560;DHT22;12727;49.934;8.656;2023-04-01T02:14:29;10.30;99.90
24560;DHT22;12727;49.934;8.656;2023-04-01T02:19:33;10.40;99.90
24560;DHT22;12727;49.934;8.656;2023-04-01T02:22:01;10.50;99.90
24560;DHT22;12727;49.934;8.656;2023-04-01T02:24:30;10.40;99.90
24560;DHT22;12727;49.934;8.656;2023-04-01T02:26:56;10.40;99.90
24560;DHT22;12727;49.934;8.656;2023-04-01T02:29:23;10.30;99.90
24560;DHT22;12727;49.934;8.656;2023-04-01T02:31:52;10.30;99.90
24560;DHT22;12727;49.934;8.656;2023-04-01T02:34:20;10.30;99.90
24560;DHT22;12727;49.934;8.656;2023-04-01T02:36:47;10.20;99.90
24560;DHT22;12727;49.934;8.656;2023-04-01T02:39:13;10.20;99.90
24560;DHT22;12727;49.934;8.656;2023-04-01T02:41:41;10.20;99.90
24560;DHT22;12727;49.934;8.656;2023-04-01T02:44:07;10.10;99.90
24560;DHT22;12727;49.934;8.656;2023-04-01T02:46:33;10.10;99.90
24560;DHT22;12727;49.934;8.656;2023-04-01T02:48:58;10.10;99.90
24560;DHT22;12727;49.934;8.656;2023-04-01T02:51:25;10.00;99.90
24560;DHT22;12727;49.934;8.656;2023-04-01T02:53:51;10.00;99.90
24560;DHT22;12727;49.934;8.656;2023-04-01T02:56:17;10.00;99.90
24560;DHT22;12727;49.934;8.656;2023-04-01T02:58:45;10.00;99.90
24560;DHT22;12727;49.934;8.656;2023-04-01T03:01:10;9.90;99.90
24560;DHT22;12727;49.934;8.656;2023-04-01T03:03:36;10.10;99.90
24560;DHT22;12727;49.934;8.656;2023-04-01T03:06:10;10.00;99.90
24560;DHT22;12727;49.934;8.656;2023-04-01T03:08:36;10.00;99.90
24560;DHT22;12727;49.934;8.656;2023-04-01T03:11:02;10.00;99.90
24560;DHT22;12727;49.934;8.656;2023-04-01T03:13:27;10.00;99.90
24560;DHT22;12727;49.934;8.656;2023-04-01T03:15:53;10.00;99.90
24560;DHT22;12727;49.934;8.656;2023-04-01T03:18:19;10.00;99.90
24560;DHT22;12727;49.934;8.656;2023-04-01T03:20:44;10.00;99.90
24560;DHT22;12727;49.934;8.656;2023-04-01T03:23:10;10.00;99.90
24560;DHT22;12727;49.934;8.656;2023-04-01T03:25:36;10.00;99.90
24560;DHT22;12727;49.934;8.656;2023-04-01T03:28:02;10.00;99.90
24560;DHT22;12727;49.934;8.656;2023-04-01T03:30:28;10.00;99.90
24560;DHT22;12727;49.934;8.656;2023-04-01T03:32:57;10.10;99.90
24560;DHT22;12727;49.934;8.656;2023-04-01T03:35:22;10.10;99.90
24560;DHT22;12727;49.934;8.656;2023-04-01T03:37:48;10.10;99.90
24560;DHT22;12727;49.934;8.656;2023-04-01T03:40:15;10.10;99.90
24560;DHT22;12727;49.934;8.656;2023-04-01T03:42:41;10.00;99.90
24560;DHT22;12727;49.934;8.656;2023-04-01T03:45:07;10.00;99.90
24560;DHT22;12727;49.934;8.656;2023-04-01T03:47:32;10.00;99.90
24560;DHT22;12727;49.934;8.656;2023-04-01T03:49:58;10.10;99.90
24560;DHT22;12727;49.934;8.656;2023-04-01T03:52:24;10.00;99.90
24560;DHT22;12727;49.934;8.656;2023-04-01T03:54:49;10.10;99.90
24560;DHT22;12727;49.934;8.656;2023-04-01T03:57:15;10.10;99.90
24560;DHT22;12727;49.934;8.656;2023-04-01T03:59:41;10.10;99.90
24560;DHT22;12727;49.934;8.656;2023-04-01T04:02:06;10.00;99.90
24560;DHT22;12727;49.934;8.656;2023-04-01T04:04:32;10.00;99.90
24560;DHT22;12727;49.934;8.656;2023-04-01T04:06:58;10.00;99.90
24560;DHT22;12727;49.934;8.656;2023-04-01T04:09:23;10.00;99.90
24560;DHT22;12727;49.934;8.656;2023-04-01T04:11:49;10.00;99.90
24560;DHT22;12727;49.934;8.656;2023-04-01T04:14:15;10.00;99.90
24560;DHT22;12727;49.934;8.656;2023-04-01T04:16:41;10.10;99.90
24560;DHT22;12727;49.934;8.656;2023-04-01T04:19:06;10.10;99.90
24560;DHT22;12727;49.934;8.656;2023-04-01T04:21:32;10.10;99.90
24560;DHT22;12727;49.934;8.656;2023-04-01T04:24:01;10.10;99.90
24560;DHT22;12727;49.934;8.656;2023-04-01T04:26:27;10.10;99.90
24560;DHT22;12727;49.934;8.656;2023-04-01T04:28:53;10.00;99.90
24560;DHT22;12727;49.934;8.656;2023-04-01T04:31:21;10.00;99.90
24560;DHT22;12727;49.934;8.656;2023-04-01T04:33:47;10.10;99.90
24560;DHT22;12727;49.934;8.656;2023-04-01T04:36:13;10.10;99.90
24560;DHT22;12727;49.934;8.656;2023-04-01T04:38:39;10.10;99.90
24560;DHT22;12727;49.934;8.656;2023-04-01T04:41:09;10.10;99.90
24560;DHT22;12727;49.934;8.656;2023-04-01T04:43:35;10.10;99.90
24560;DHT22;12727;49.934;8.656;2023-04-01T04:46:05;10.10;99.90
24560;DHT22;12727;49.934;8.656;2023-04-01T04:48:31;10.10;99.90
24560;DHT22;12727;49.934;8.656;2023-04-01T04:50:57;10.10;99.90
24560;DHT22;12727;49.934;8.656;2023-04-01T04:53:22;10.20;99.90
24560;DHT22;12727;49.934;8.656;2023-04-01T04:55:49;10.20;99.90
24560;DHT22;12727;49.934;8.656;2023-04-01T04:58:16;10.20;99.90
24560;DHT22;12727;49.934;8.656;2023-04-01T05:00:42;10.20;99.90
24560;DHT22;12727;49.934;8.656;2023-04-01T05:03:09;10.20;99.90
24560;DHT22;12727;49.934;8.656;2023-04-01T05:05:34;10.20;99.90
24560;DHT22;12727;49.934;8.656;2023-04-01T05:08:00;10.10;99.90
24560;DHT22;12727;49.934;8.656;2023-04-01T05:10:26;10.10;99.90
24560;DHT22;12727;49.934;8.656;2023-04-01T05:12:52;10.10;99.90
24560;DHT22;12727;49.934;8.656;2023-04-01T05:15:18;10.10;99.90
24560;DHT22;12727;49.934;8.656;2023-04-01T05:17:43;10.10;99.90
24560;DHT22;12727;49.934;8.656;2023-04-01T05:20:11;10.20;99.90
24560;DHT22;12727;49.934;8.656;2023-04-01T05:22:36;10.20;99.90
24560;DHT22;12727;49.934;8.656;2023-04-01T05:25:02;10.20;99.90
24560;DHT22;12727;49.934;8.656;2023-04-01T05:27:28;10.20;99.90
24560;DHT22;12727;49.934;8.656;2023-04-01T05:29:53;10.20;99.90
24560;DHT22;12727;49.934;8.656;2023-04-01T05:32:19;10.20;99.90
24560;DHT22;12727;49.934;8.656;2023-04-01T05:34:44;10.10;99.90
24560;DHT22;12727;49.934;8.656;2023-04-01T05:37:10;10.10;99.90
24560;DHT22;12727;49.934;8.656;2023-04-01T05:39:39;10.20;99.90
24560;DHT22;12727;49.934;8.656;2023-04-01T05:42:08;10.10;99.90
24560;DHT22;12727;49.934;8.656;2023-04-01T05:44:34;10.20;99.90
24560;DHT22;12727;49.934;8.656;2023-04-01T05:47:00;10.10;99.90
24560;DHT22;12727;49.934;8.656;2023-04-01T05:49:26;10.10;99.90
24560;DHT22;12727;49.934;8.656;2023-04-01T05:51:52;10.10;99.90
24560;DHT22;12727;49.934;8.656;2023-04-01T05:54:18;10.10;99.90
24560;DHT22;12727;49.934;8.656;2023-04-01T05:56:43;10.10;99.90
24560;DHT22;12727;49.934;8.656;2023-04-01T05:59:10;10.00;99.90
24560;DHT22;12727;49.934;8.656;2023-04-01T06:01:36;10.10;99.90
24560;DHT22;12727;49.934;8.656;2023-04-01T06:04:02;10.00;99.90
24560;DHT22;12727;49.934;8.656;2023-04-01T06:06:29;10.10;99.90
24560;DHT22;12727;49.934;8.656;2023-04-01T06:08:58;10.00;99.90
24560;DHT22;12727;49.934;8.656;2023-04-01T06:11:41;10.00;99.90
24560;DHT22;12727;49.934;8.656;2023-04-01T06:14:11;10.00;99.90
24560;DHT22;12727;49.934;8.656;2023-04-01T06:16:54;10.00;99.90
24560;DHT22;12727;49.934;8.656;2023-04-01T06:22:18;10.00;99.90
24560;DHT22;12727;49.934;8.656;2023-04-01T06:33:17;10.00;99.90
24560;DHT22;12727;49.934;8.656;2023-04-01T06:50:19;10.20;99.90
24560;DHT22;12727;49.934;8.656;2023-04-01T06:58:22;10.10;99.90
24560;DHT22;12727;49.934;8.656;2023-04-01T07:00:52;10.10;99.90
24560;DHT22;12727;49.934;8.656;2023-04-01T07:03:40;10.00;99.90
24560;DHT22;12727;49.934;8.656;2023-04-01T07:06:25;10.00;99.90
24560;DHT22;12727;49.934;8.656;2023-04-01T07:08:54;10.00;99.90
24560;DHT22;12727;49.934;8.656;2023-04-01T07:11:31;9.90;99.90
24560;DHT22;12727;49.934;8.656;2023-04-01T07:14:17;10.00;99.90
24560;DHT22;12727;49.934;8.656;2023-04-01T07:16:54;10.00;99.90
24560;DHT22;12727;49.934;8.656;2023-04-01T07:21:54;10.00;99.90
24560;DHT22;12727;49.934;8.656;2023-04-01T07:24:25;10.10;99.90
24560;DHT22;12727;49.934;8.656;2023-04-01T07:26:54;10.10;99.90
24560;DHT22;12727;49.934;8.656;2023-04-01T07:29:20;10.10;99.90
24560;DHT22;12727;49.934;8.656;2023-04-01T07:34:25;10.20;99.90
24560;DHT22;12727;49.934;8.656;2023-04-01T07:45:29;10.40;99.90
24560;DHT22;12727;49.934;8.656;2023-04-01T07:48:33;10.40;99.90
24560;DHT22;12727;49.934;8.656;2023-04-01T07:53:38;10.50;99.90
24560;DHT22;12727;49.934;8.656;2023-04-01T07:56:55;10.50;99.90
24560;DHT22;12727;49.934;8.656;2023-04-01T07:59:20;10.50;99.90
24560;DHT22;12727;49.934;8.656;2023-04-01T08:07:17;10.50;99.90
24560;DHT22;12727;49.934;8.656;2023-04-01T08:09:47;10.50;99.90
24560;DHT22;12727;49.934;8.656;2023-04-01T08:14:55;10.50;99.90
24560;DHT22;12727;49.934;8.656;2023-04-01T08:17:39;10.60;99.90
24560;DHT22;12727;49.934;8.656;2023-04-01T08:22:50;10.60;99.90
24560;DHT22;12727;49.934;8.656;2023-04-01T08:25:24;10.60;99.90
24560;DHT22;12727;49.934;8.656;2023-04-01T08:31:48;10.60;99.90
24560;DHT22;12727;49.934;8.656;2023-04-01T08:34:19;10.50;99.90
24560;DHT22;12727;49.934;8.656;2023-04-01T08:36:52;10.40;99.90
24560;DHT22;12727;49.934;8.656;2023-04-01T08:39:30;10.30;99.90
24560;DHT22;12727;49.934;8.656;2023-04-01T08:48:25;10.30;99.90
24560;DHT22;12727;49.934;8.656;2023-04-01T08:51:19;10.30;99.90
24560;DHT22;12727;49.934;8.656;2023-04-01T08:53:53;10.30;99.90
24560;DHT22;12727;49.934;8.656;2023-04-01T08:56:46;10.20;99.90
24560;DHT22;12727;49.934;8.656;2023-04-01T09:05:34;10.40;99.90
24560;DHT22;12727;49.934;8.656;2023-04-01T09:10:50;10.50;99.90
24560;DHT22;12727;49.934;8.656;2023-04-01T09:27:29;10.80;99.90
24560;DHT22;12727;49.934;8.656;2023-04-01T09:35:38;10.90;99.90
24560;DHT22;12727;49.934;8.656;2023-04-01T09:43:27;10.70;99.90
24560;DHT22;12727;49.934;8.656;2023-04-01T09:56:52;10.60;99.90
24560;DHT22;12727;49.934;8.656;2023-04-01T10:22:49;10.60;99.90
24560;DHT22;12727;49.934;8.656;2023-04-01T10:26:17;10.60;99.90
24560;DHT22;12727;49.934;8.656;2023-04-01T10:28:51;10.80;99.90
24560;DHT22;12727;49.934;8.656;2023-04-01T10:40:17;11.00;99.90
24560;DHT22;12727;49.934;8.656;2023-04-01T10:45:48;11.00;99.90
24560;DHT22;12727;49.934;8.656;2023-04-01T10:49:09;11.00;99.90
24560;DHT22;12727;49.934;8.656;2023-04-01T10:52:15;11.00;99.90
24560;DHT22;12727;49.934;8.656;2023-04-01T11:14:28;11.10;99.90
24560;DHT22;12727;49.934;8.656;2023-04-01T11:20:34;11.10;99.90
24560;DHT22;12727;49.934;8.656;2023-04-01T11:29:24;11.30;99.90
24560;DHT22;12727;49.934;8.656;2023-04-01T11:46:11;11.60;99.90
24560;DHT22;12727;49.934;8.656;2023-04-01T11:48:58;11.60;99.90
24560;DHT22;12727;49.934;8.656;2023-04-01T11:54:25;11.50;99.90
24560;DHT22;12727;49.934;8.656;2023-04-01T11:57:12;11.50;99.90
24560;DHT22;12727;49.934;8.656;2023-04-01T12:08:42;11.40;99.90
24560;DHT22;12727;49.934;8.656;2023-04-01T12:16:52;11.50;99.90
24560;DHT22;12727;49.934;8.656;2023-04-01T12:19:31;11.50;99.90
24560;DHT22;12727;49.934;8.656;2023-04-01T12:22:23;11.50;99.90
24560;DHT22;12727;49.934;8.656;2023-04-01T12:28:15;11.50;99.90
24560;DHT22;12727;49.934;8.656;2023-04-01T12:30:38;11.40;99.90
24560;DHT22;12727;49.934;8.656;2023-04-01T12:41:47;11.30;99.90
24560;DHT22;12727;49.934;8.656;2023-04-01T12:44:32;11.30;99.90
24560;DHT22;12727;49.934;8.656;2023-04-01T12:47:13;11.30;99.90
24560;DHT22;12727;49.934;8.656;2023-04-01T12:55:43;11.40;99.90
24560;DHT22;12727;49.934;8.656;2023-04-01T13:15:33;11.50;99.90
24560;DHT22;12727;49.934;8.656;2023-04-01T13:18:44;11.40;99.90
24560;DHT22;12727;49.934;8.656;2023-04-01T13:21:24;11.30;99.90
24560;DHT22;12727;49.934;8.656;2023-04-01T13:29:32;11.10;99.90
24560;DHT22;12727;49.934;8.656;2023-04-01T13:32:05;11.10;99.90
24560;DHT22;12727;49.934;8.656;2023-04-01T13:35:04;11.10;99.90
24560;DHT22;12727;49.934;8.656;2023-04-01T13:46:41;11.40;99.90
24560;DHT22;12727;49.934;8.656;2023-04-01T13:52:03;11.60;99.90
24560;DHT22;12727;49.934;8.656;2023-04-01T13:57:16;11.70;99.90
24560;DHT22;12727;49.934;8.656;2023-04-01T14:00:25;11.70;99.90
24560;DHT22;12727;49.934;8.656;2023-04-01T14:03:18;11.60;99.90
24560;DHT22;12727;49.934;8.656;2023-04-01T14:05:47;11.60;99.90
24560;DHT22;12727;49.934;8.656;2023-04-01T14:14:04;12.00;99.90
24560;DHT22;12727;49.934;8.656;2023-04-01T14:25:16;12.10;99.90
24560;DHT22;12727;49.934;8.656;2023-04-01T14:28:08;12.00;99.90
24560;DHT22;12727;49.934;8.656;2023-04-01T14:34:05;12.10;99.90
24560;DHT22;12727;49.934;8.656;2023-04-01T14:47:58;12.30;99.90
24560;DHT22;12727;49.934;8.656;2023-04-01T14:50:28;12.30;99.90
24560;DHT22;12727;49.934;8.656;2023-04-01T15:03:32;11.70;99.90
24560;DHT22;12727;49.934;8.656;2023-04-01T15:06:34;11.70;99.90
24560;DHT22;12727;49.934;8.656;2023-04-01T15:12:29;11.60;99.90
24560;DHT22;12727;49.934;8.656;2023-04-01T15:15:21;11.60;99.90
24560;DHT22;12727;49.934;8.656;2023-04-01T15:18:07;11.70;99.90
24560;DHT22;12727;49.934;8.656;2023-04-01T15:23:13;11.60;99.90
24560;DHT22;12727;49.934;8.656;2023-04-01T15:26:11;11.50;99.90
24560;DHT22;12727;49.934;8.656;2023-04-01T15:31:32;11.50;99.90
24560;DHT22;12727;49.934;8.656;2023-04-01T15:34:31;11.40;99.90
24560;DHT22;12727;49.934;8.656;2023-04-01T15:45:41;11.30;99.90
24560;DHT22;12727;49.934;8.656;2023-04-01T15:51:20;11.40;99.90
24560;DHT22;12727;49.934;8.656;2023-04-01T16:00:09;11.70;99.90
24560;DHT22;12727;49.934;8.656;2023-04-01T16:10:49;11.70;99.90
24560;DHT22;12727;49.934;8.656;2023-04-01T16:21:34;11.80;99.90
24560;DHT22;12727;49.934;8.656;2023-04-01T16:26:54;11.80;99.90
24560;DHT22;12727;49.934;8.656;2023-04-01T16:32:26;11.70;99.90
24560;DHT22;12727;49.934;8.656;2023-04-01T16:37:53;11.60;99.90
24560;DHT22;12727;49.934;8.656;2023-04-01T16:40:53;11.50;99.90
24560;DHT22;12727;49.934;8.656;2023-04-01T16:46:20;11.40;99.90
24560;DHT22;12727;49.934;8.656;2023-04-01T16:51:54;11.50;99.90
24560;DHT22;12727;49.934;8.656;2023-04-01T16:54:31;11.50;99.90
24560;DHT22;12727;49.934;8.656;2023-04-01T16:59:53;11.50;99.90
24560;DHT22;12727;49.934;8.656;2023-04-01T17:02:23;11.50;99.90
24560;DHT22;12727;49.934;8.656;2023-04-01T17:05:10;11.50;99.90
24560;DHT22;12727;49.934;8.656;2023-04-01T17:08:08;11.40;99.90
24560;DHT22;12727;49.934;8.656;2023-04-01T17:10:56;11.40;99.90
24560;DHT22;12727;49.934;8.656;2023-04-01T17:13:29;11.30;99.90
24560;DHT22;12727;49.934;8.656;2023-04-01T17:16:21;11.30;99.90
24560;DHT22;12727;49.934;8.656;2023-04-01T17:24:29;11.30;99.90
24560;DHT22;12727;49.934;8.656;2023-04-01T17:30:29;11.20;99.90
24560;DHT22;12727;49.934;8.656;2023-04-01T17:33:24;11.20;99.90
24560;DHT22;12727;49.934;8.656;2023-04-01T17:39:01;11.20;99.90
24560;DHT22;12727;49.934;8.656;2023-04-01T17:42:15;11.30;99.90
24560;DHT22;12727;49.934;8.656;2023-04-01T17:47:41;11.20;99.90
24560;DHT22;12727;49.934;8.656;2023-04-01T17:56:02;11.20;99.90
24560;DHT22;12727;49.934;8.656;2023-04-01T18:01:36;11.10;99.90
24560;DHT22;12727;49.934;8.656;2023-04-01T18:10:19;11.10;99.90
24560;DHT22;12727;49.934;8.656;2023-04-01T18:13:15;11.10;99.90
24560;DHT22;12727;49.934;8.656;2023-04-01T18:19:01;11.10;99.90
24560;DHT22;12727;49.934;8.656;2023-04-01T18:21:41;11.10;99.90
24560;DHT22;12727;49.934;8.656;2023-04-01T18:24:18;11.00;99.90
24560;DHT22;12727;49.934;8.656;2023-04-01T18:27:15;11.10;99.90
24560;DHT22;12727;49.934;8.656;2023-04-01T18:30:01;11.00;99.90
24560;DHT22;12727;49.934;8.656;2023-04-01T18:32:36;11.00;99.90
24560;DHT22;12727;49.934;8.656;2023-04-01T18:38:23;11.00;99.90
24560;DHT22;12727;49.934;8.656;2023-04-01T18:41:12;10.90;99.90
24560;DHT22;12727;49.934;8.656;2023-04-01T18:44:00;10.90;99.90
24560;DHT22;12727;49.934;8.656;2023-04-01T18:46:46;10.80;99.90
24560;DHT22;12727;49.934;8.656;2023-04-01T18:49:21;10.80;99.90
24560;DHT22;12727;49.934;8.656;2023-04-01T18:54:47;10.80;99.90
24560;DHT22;12727;49.934;8.656;2023-04-01T18:57:16;10.90;99.90
24560;DHT22;12727;49.934;8.656;2023-04-01T18:59:51;10.80;99.90
24560;DHT22;12727;49.934;8.656;2023-04-01T19:02:41;10.70;99.90
24560;DHT22;12727;49.934;8.656;2023-04-01T19:05:18;10.70;99.90
24560;DHT22;12727;49.934;8.656;2023-04-01T19:07:50;10.70;99.90
24560;DHT22;12727;49.934;8.656;2023-04-01T19:10:40;10.70;99.90
24560;DHT22;12727;49.934;8.656;2023-04-01T19:22:21;10.70;99.90
24560;DHT22;12727;49.934;8.656;2023-04-01T19:27:59;10.60;99.90
24560;DHT22;12727;49.934;8.656;2023-04-01T19:30:32;10.50;99.90
24560;DHT22;12727;49.934;8.656;2023-04-01T19:33:22;10.40;99.90
24560;DHT22;12727;49.934;8.656;2023-04-01T19:36:11;10.40;99.90
24560;DHT22;12727;49.934;8.656;2023-04-01T19:39:00;10.40;99.90
24560;DHT22;12727;49.934;8.656;2023-04-01T19:46:51;10.40;99.90
24560;DHT22;12727;49.934;8.656;2023-04-01T19:49:21;10.30;99.90
24560;DHT22;12727;49.934;8.656;2023-04-01T19:52:08;10.30;99.90
24560;DHT22;12727;49.934;8.656;2023-04-01T19:55:03;10.30;99.90
24560;DHT22;12727;49.934;8.656;2023-04-01T20:00:34;10.30;99.90
24560;DHT22;12727;49.934;8.656;2023-04-01T20:03:04;10.20;99.90
24560;DHT22;12727;49.934;8.656;2023-04-01T20:08:28;10.10;99.90
24560;DHT22;12727;49.934;8.656;2023-04-01T20:16:20;10.10;99.90
24560;DHT22;12727;49.934;8.656;2023-04-01T20:19:00;10.20;99.90
24560;DHT22;12727;49.934;8.656;2023-04-01T20:21:34;10.20;99.90
24560;DHT22;12727;49.934;8.656;2023-04-01T20:26:42;10.30;99.90
24560;DHT22;12727;49.934;8.656;2023-04-01T20:31:41;10.20;99.90
24560;DHT22;12727;49.934;8.656;2023-04-01T20:40:19;10.10;99.90
24560;DHT22;12727;49.934;8.656;2023-04-01T20:51:51;10.00;99.90
24560;DHT22;12727;49.934;8.656;2023-04-01T20:54:48;10.10;99.90
24560;DHT22;12727;49.934;8.656;2023-04-01T21:00:42;10.00;99.90
24560;DHT22;12727;49.934;8.656;2023-04-01T21:03:33;10.00;99.90
24560;DHT22;12727;49.934;8.656;2023-04-01T21:06:27;9.90;99.90
24560;DHT22;12727;49.934;8.656;2023-04-01T21:14:34;9.80;99.90
24560;DHT22;12727;49.934;8.656;2023-04-01T21:23:06;9.80;99.90
24560;DHT22;12727;49.934;8.656;2023-04-01T21:31:03;9.80;99.90
24560;DHT22;12727;49.934;8.656;2023-04-01T21:36:16;9.90;99.90
24560;DHT22;12727;49.934;8.656;2023-04-01T21:39:18;9.90;99.90
24560;DHT22;12727;49.934;8.656;2023-04-01T21:44:53;9.90;99.90
24560;DHT22;12727;49.934;8.656;2023-04-01T21:50:12;9.90;99.90
24560;DHT22;12727;49.934;8.656;2023-04-01T21:58:24;9.90;99.90
24560;DHT22;12727;49.934;8.656;2023-04-01T22:07:00;9.80;99.90
24560;DHT22;12727;49.934;8.656;2023-04-01T22:09:39;9.80;99.90
24560;DHT22;12727;49.934;8.656;2023-04-01T22:17:38;9.80;99.90
24560;DHT22;12727;49.934;8.656;2023-04-01T22:20:31;9.80;99.90
24560;DHT22;12727;49.934;8.656;2023-04-01T22:26:21;9.80;99.90
24560;DHT22;12727;49.934;8.656;2023-04-01T22:29:10;9.90;99.90
24560;DHT22;12727;49.934;8.656;2023-04-01T22:32:05;9.90;99.90
24560;DHT22;12727;49.934;8.656;2023-04-01T22:40:28;9.80;99.90
24560;DHT22;12727;49.934;8.656;2023-04-01T22:42:57;9.90;99.90
24560;DHT22;12727;49.934;8.656;2023-04-01T22:45:54;9.90;99.90
24560;DHT22;12727;49.934;8.656;2023-04-01T22:48:26;9.90;99.90
24560;DHT22;12727;49.934;8.656;2023-04-01T22:51:15;9.80;99.90
24560;DHT22;12727;49.934;8.656;2023-04-01T22:54:03;9.80;99.90
24560;DHT22;12727;49.934;8.656;2023-04-01T22:56:37;9.80;99.90
24560;DHT22;12727;49.934;8.656;2023-04-01T23:01:57;9.90;99.90
24560;DHT22;12727;49.934;8.656;2023-04-01T23:04:32;9.90;99.90
24560;DHT22;12727;49.934;8.656;2023-04-01T23:07:02;10.00;99.90
24560;DHT22;12727;49.934;8.656;2023-04-01T23:09:35;9.90;99.90
24560;DHT22;12727;49.934;8.656;2023-04-01T23:12:08;9.80;99.90
24560;DHT22;12727;49.934;8.656;2023-04-01T23:17:08;9.80;99.90
24560;DHT22;12727;49.934;8.656;2023-04-01T23:19:37;9.90;99.90
24560;DHT22;12727;49.934;8.656;2023-04-01T23:27:41;9.90;99.90
24560;DHT22;12727;49.934;8.656;2023-04-01T23:38:26;9.80;99.90
24560;DHT22;12727;49.934;8.656;2023-04-01T23:40:54;9.80;99.90
24560;DHT22;12727;49.934;8.656;2023-04-01T23:43:29;9.70;99.90
24560;DHT22;12727;49.934;8.656;2023-04-01T23:45:57;9.70;99.90
24560;DHT22;12727;49.934;8.656;2023-04-01T23:48:29;9.70;99.90
24560;DHT22;12727;49.934;8.656;2023-04-01T23:50:57;9.70;99.90
24560;DHT22;12727;49.934;8.656;2023-04-01T23:53:30;9.70;99.90
24560;DHT22;12727;49.934;8.656;2023-04-01T23:55:58;9.60;99.90
24560;DHT22;12727;49.934;8.656;2023-04-01T23:58:26;9.40;99.90
